createdAt,value
2018-07-01T00:00:30.682Z,99.90
2018-07-01T00:02:59.558Z,99.90
2018-07-01T00:05:28.478Z,99.90
2018-07-01T00:07:57.940Z,99.90
2018-07-01T00:10:26.980Z,99.90
2018-07-01T00:12:56.170Z,99.90
2018-07-01T00:15:25.703Z,99.90
2018-07-01T00:17:55.074Z,99.90
2018-07-01T00:20:24.124Z,99.90
2018-07-01T00:27:49.901Z,99.90
2018-07-01T00:30:18.823Z,99.90
2018-07-01T00:32:48.114Z,99.90
2018-07-01T00:35:17.475Z,99.90
2018-07-01T00:37:46.622Z,99.60
2018-07-01T00:40:15.572Z,99.70
2018-07-01T00:42:44.808Z,99.40
2018-07-01T00:45:14.143Z,99.80
2018-07-01T00:50:11.920Z,99.80
2018-07-01T00:55:09.845Z,99.50
2018-07-01T00:57:39.098Z,99.70
2018-07-01T01:00:08.780Z,99.90
2018-07-01T01:02:38.201Z,99.90
2018-07-01T01:05:07.628Z,99.90
2018-07-01T01:07:37.077Z,99.90
2018-07-01T01:10:06.879Z,99.90
2018-07-01T01:12:36.017Z,99.90
2018-07-01T01:17:34.187Z,99.80
2018-07-01T01:20:03.473Z,99.70
2018-07-01T01:22:33.123Z,99.80
2018-07-01T01:27:31.239Z,99.90
2018-07-01T01:30:00.423Z,99.70
2018-07-01T01:32:29.658Z,99.70
2018-07-01T01:34:58.979Z,99.70
2018-07-01T01:37:28.467Z,99.90
2018-07-01T01:39:57.837Z,99.90
2018-07-01T01:42:38.383Z,99.90
2018-07-01T01:45:17.003Z,99.90
2018-07-01T01:47:51.064Z,99.90
2018-07-01T01:50:26.047Z,99.90
2018-07-01T01:53:05.273Z,99.90
2018-07-01T01:55:41.204Z,99.80
2018-07-01T01:58:15.968Z,99.90
2018-07-01T02:00:49.164Z,99.90
2018-07-01T02:03:23.212Z,99.90
2018-07-01T02:05:59.394Z,99.90
2018-07-01T02:08:31.582Z,99.90
2018-07-01T02:13:30.782Z,99.90
2018-07-01T02:16:28.422Z,99.90
2018-07-01T02:19:48.020Z,99.90
2018-07-01T02:22:20.141Z,99.90
2018-07-01T02:24:50.315Z,99.90
2018-07-01T02:29:48.192Z,99.90
2018-07-01T02:32:17.184Z,99.90
2018-07-01T02:37:15.137Z,99.90
2018-07-01T02:39:44.367Z,99.90
2018-07-01T02:44:41.901Z,99.90
2018-07-01T02:47:11.475Z,99.90
2018-07-01T02:49:40.667Z,99.90
2018-07-01T02:52:09.746Z,99.90
2018-07-01T02:57:07.732Z,99.90
2018-07-01T02:59:36.932Z,99.90
2018-07-01T03:02:06.293Z,99.90
2018-07-01T03:04:35.689Z,99.90
2018-07-01T03:07:11.594Z,99.90
2018-07-01T03:09:40.853Z,99.90
2018-07-01T03:12:10.206Z,99.90
2018-07-01T03:14:39.302Z,99.90
2018-07-01T03:17:08.742Z,99.90
2018-07-01T03:19:37.873Z,99.90
2018-07-01T03:22:06.923Z,99.90
2018-07-01T03:24:35.993Z,99.90
2018-07-01T03:27:05.285Z,99.90
2018-07-01T03:29:34.504Z,99.90
2018-07-01T03:32:03.627Z,99.90
2018-07-01T03:34:32.423Z,99.90
2018-07-01T03:37:01.254Z,99.90
2018-07-01T03:41:59.220Z,99.90
2018-07-01T03:46:56.961Z,99.90
2018-07-01T03:49:26.180Z,99.90
2018-07-01T03:51:55.561Z,99.90
2018-07-01T03:54:24.529Z,99.90
2018-07-01T03:56:53.876Z,99.90
2018-07-01T03:59:22.711Z,99.90
2018-07-01T04:01:51.590Z,99.90
2018-07-01T04:04:20.709Z,99.90
2018-07-01T04:06:49.796Z,99.90
2018-07-01T04:09:18.777Z,99.90
2018-07-01T04:11:48.079Z,99.90
2018-07-01T04:14:17.348Z,99.90
2018-07-01T04:19:15.061Z,99.90
2018-07-01T04:21:44.045Z,99.90
2018-07-01T04:24:13.599Z,99.90
2018-07-01T04:26:42.713Z,99.90
2018-07-01T04:29:11.725Z,99.90
2018-07-01T04:34:09.667Z,99.90
2018-07-01T04:36:38.744Z,99.90
2018-07-01T04:39:08.668Z,99.90
2018-07-01T04:41:37.611Z,99.90
2018-07-01T04:44:06.669Z,99.90
2018-07-01T04:46:36.006Z,99.90
2018-07-01T04:54:02.765Z,99.90
2018-07-01T04:56:31.624Z,99.90
2018-07-01T04:59:00.564Z,99.80
2018-07-01T05:01:29.498Z,99.60
2018-07-01T05:03:58.599Z,99.40
2018-07-01T05:06:27.646Z,99.30
2018-07-01T05:08:56.580Z,99.60
2018-07-01T05:11:25.724Z,99.60
2018-07-01T05:16:23.342Z,99.20
2018-07-01T05:18:52.387Z,99.10
2018-07-01T05:21:21.206Z,98.80
2018-07-01T05:23:50.221Z,98.80
2018-07-01T05:26:19.240Z,98.30
2018-07-01T05:28:48.028Z,98.10
2018-07-01T05:31:17.009Z,97.90
2018-07-01T05:33:46.105Z,97.80
2018-07-01T05:36:14.848Z,97.80
2018-07-01T05:38:43.800Z,97.80
2018-07-01T05:41:12.861Z,97.50
2018-07-01T05:43:41.920Z,97.60
2018-07-01T05:46:10.756Z,97.50
2018-07-01T05:48:39.572Z,97.60
2018-07-01T05:51:08.635Z,97.50
2018-07-01T05:53:37.646Z,97.60
2018-07-01T05:56:06.920Z,97.80
2018-07-01T05:58:36.100Z,97.80
2018-07-01T06:01:05.257Z,97.60
2018-07-01T06:06:02.967Z,97.40
2018-07-01T06:08:31.802Z,97.20
2018-07-01T06:11:03.560Z,96.60
2018-07-01T06:13:32.219Z,97.00
2018-07-01T06:16:00.987Z,96.10
2018-07-01T06:18:29.783Z,95.80
2018-07-01T06:20:58.849Z,95.20
2018-07-01T06:25:56.111Z,93.90
2018-07-01T06:28:25.161Z,93.80
2018-07-01T06:30:54.248Z,93.70
2018-07-01T06:33:23.357Z,93.80
2018-07-01T06:35:52.183Z,93.50
2018-07-01T06:40:49.622Z,92.80
2018-07-01T06:43:18.406Z,92.80
2018-07-01T06:45:47.560Z,93.00
2018-07-01T06:48:16.405Z,92.60
2018-07-01T06:50:45.199Z,93.20
2018-07-01T06:53:14.091Z,92.40
2018-07-01T06:55:42.801Z,92.10
2018-07-01T06:58:11.554Z,92.00
2018-07-01T07:00:40.552Z,91.60
2018-07-01T07:03:09.434Z,91.90
2018-07-01T07:05:38.421Z,91.70
2018-07-01T07:08:07.284Z,91.50
2018-07-01T07:10:36.666Z,91.90
2018-07-01T07:13:05.696Z,92.00
2018-07-01T07:15:34.511Z,91.00
2018-07-01T07:18:03.489Z,90.00
2018-07-01T07:20:32.381Z,90.80
2018-07-01T07:23:01.370Z,90.00
2018-07-01T07:25:30.184Z,90.30
2018-07-01T07:30:27.770Z,90.00
2018-07-01T07:35:25.431Z,90.00
2018-07-01T07:37:54.437Z,88.70
2018-07-01T07:40:23.218Z,87.20
2018-07-01T07:42:52.101Z,87.60
2018-07-01T07:45:21.236Z,88.60
2018-07-01T07:50:19.064Z,86.30
2018-07-01T07:52:47.713Z,87.50
2018-07-01T07:55:16.663Z,87.20
2018-07-01T08:00:14.238Z,87.70
2018-07-01T08:02:43.077Z,84.70
2018-07-01T08:05:11.909Z,85.30
2018-07-01T08:07:40.708Z,83.80
2018-07-01T08:12:38.172Z,84.00
2018-07-01T08:15:07.029Z,82.50
2018-07-01T08:20:04.707Z,81.50
2018-07-01T08:22:33.647Z,80.50
2018-07-01T08:27:30.972Z,78.70
2018-07-01T08:29:59.735Z,78.00
2018-07-01T08:32:28.568Z,76.50
2018-07-01T08:34:57.593Z,79.70
2018-07-01T08:37:26.557Z,75.80
2018-07-01T08:39:55.339Z,76.40
2018-07-01T08:42:25.770Z,78.50
2018-07-01T08:44:55.327Z,78.30
2018-07-01T08:47:24.187Z,78.10
2018-07-01T08:49:53.261Z,78.80
2018-07-01T08:52:22.007Z,78.20
2018-07-01T08:54:51.022Z,77.40
2018-07-01T08:57:20.823Z,76.80
2018-07-01T08:59:49.971Z,76.20
2018-07-01T09:02:19.598Z,77.00
2018-07-01T09:04:48.540Z,76.10
2018-07-01T09:07:18.000Z,76.70
2018-07-01T09:09:51.293Z,75.80
2018-07-01T09:12:20.693Z,74.00
2018-07-01T09:14:49.917Z,76.50
2018-07-01T09:17:19.267Z,75.60
2018-07-01T09:19:48.198Z,76.20
2018-07-01T09:22:17.125Z,78.00
2018-07-01T09:24:46.032Z,79.90
2018-07-01T09:29:49.033Z,84.60
2018-07-01T09:32:17.851Z,85.30
2018-07-01T09:34:46.950Z,86.60
2018-07-01T09:37:16.431Z,84.90
2018-07-01T09:39:45.449Z,86.00
2018-07-01T09:42:14.737Z,85.60
2018-07-01T09:44:43.716Z,86.20
2018-07-01T09:47:12.520Z,86.20
2018-07-01T09:49:41.632Z,84.30
2018-07-01T09:52:10.456Z,84.90
2018-07-01T09:54:39.394Z,84.20
2018-07-01T09:57:08.308Z,85.90
2018-07-01T09:59:37.200Z,87.20
2018-07-01T10:02:06.169Z,86.80
2018-07-01T10:04:35.096Z,85.80
2018-07-01T10:07:04.279Z,85.60
2018-07-01T10:09:33.256Z,84.50
2018-07-01T10:12:02.493Z,83.20
2018-07-01T10:14:31.383Z,82.70
2018-07-01T10:17:00.347Z,86.00
2018-07-01T10:19:29.549Z,86.80
2018-07-01T10:21:58.618Z,85.80
2018-07-01T10:24:27.467Z,86.40
2018-07-01T10:26:56.312Z,86.10
2018-07-01T10:29:25.643Z,86.70
2018-07-01T10:31:54.423Z,84.40
2018-07-01T10:34:23.493Z,85.00
2018-07-01T10:36:52.336Z,85.10
2018-07-01T10:39:21.222Z,85.40
2018-07-01T10:41:50.001Z,85.00
2018-07-01T10:44:19.085Z,84.20
2018-07-01T10:46:48.007Z,84.40
2018-07-01T10:49:17.116Z,84.30
2018-07-01T10:51:46.324Z,83.80
2018-07-01T10:54:15.338Z,84.00
2018-07-01T10:56:44.291Z,84.60
2018-07-01T10:59:13.341Z,83.30
2018-07-01T11:01:42.432Z,83.60
2018-07-01T11:04:11.574Z,83.20
2018-07-01T11:09:11.075Z,82.90
2018-07-01T11:11:40.048Z,81.90
2018-07-01T11:14:09.139Z,82.20
2018-07-01T11:16:37.973Z,81.90
2018-07-01T11:19:06.819Z,83.00
2018-07-01T11:21:35.791Z,82.60
2018-07-01T11:24:05.020Z,83.00
2018-07-01T11:26:34.381Z,83.70
2018-07-01T11:29:03.372Z,83.20
2018-07-01T11:31:32.515Z,82.60
2018-07-01T11:34:01.344Z,83.90
2018-07-01T11:36:30.370Z,84.20
2018-07-01T11:38:59.567Z,84.50
2018-07-01T11:41:28.506Z,84.30
2018-07-01T11:46:26.097Z,84.50
2018-07-01T11:48:55.392Z,83.50
2018-07-01T11:51:24.375Z,82.80
2018-07-01T11:53:53.596Z,82.60
2018-07-01T11:56:22.571Z,81.40
2018-07-01T12:01:20.555Z,83.00
2018-07-01T12:06:18.242Z,83.30
2018-07-01T12:08:47.343Z,83.30
2018-07-01T12:11:16.477Z,82.50
2018-07-01T12:13:45.558Z,82.40
2018-07-01T12:16:14.428Z,82.30
2018-07-01T12:18:43.353Z,82.30
2018-07-01T12:21:12.164Z,83.20
2018-07-01T12:23:41.281Z,82.80
2018-07-01T12:26:10.371Z,82.30
2018-07-01T12:28:39.548Z,82.20
2018-07-01T12:31:08.624Z,82.50
2018-07-01T12:33:37.802Z,83.10
2018-07-01T12:36:06.696Z,81.40
2018-07-01T12:38:35.843Z,81.10
2018-07-01T12:43:33.430Z,82.30
2018-07-01T12:46:02.413Z,82.20
2018-07-01T12:51:00.057Z,82.30
2018-07-01T12:53:29.253Z,81.40
2018-07-01T12:55:58.198Z,84.10
2018-07-01T12:58:27.173Z,85.00
2018-07-01T13:03:24.807Z,86.50
2018-07-01T13:05:53.974Z,87.00
2018-07-01T13:08:22.931Z,87.00
2018-07-01T13:13:20.682Z,88.90
2018-07-01T13:15:49.665Z,89.00
2018-07-01T13:18:25.141Z,90.10
2018-07-01T13:20:54.101Z,90.10
2018-07-01T13:23:22.980Z,90.60
2018-07-01T13:25:51.878Z,90.60
2018-07-01T13:28:20.876Z,90.70
2018-07-01T13:30:49.870Z,90.90
2018-07-01T13:33:18.838Z,90.60
2018-07-01T13:35:48.224Z,90.70
2018-07-01T13:40:46.047Z,90.60
2018-07-01T13:43:15.060Z,90.80
2018-07-01T13:45:44.049Z,91.00
2018-07-01T13:48:12.945Z,91.20
2018-07-01T13:50:42.041Z,91.60
2018-07-01T13:53:10.935Z,91.40
2018-07-01T13:55:39.803Z,92.10
2018-07-01T13:58:08.613Z,92.20
2018-07-01T14:00:37.645Z,92.00
2018-07-01T14:03:06.888Z,92.80
2018-07-01T14:05:35.856Z,92.10
2018-07-01T14:08:04.682Z,92.00
2018-07-01T14:10:33.907Z,91.90
2018-07-01T14:15:31.533Z,91.60
2018-07-01T14:18:00.536Z,91.20
2018-07-01T14:20:29.643Z,91.60
2018-07-01T14:25:27.608Z,92.00
2018-07-01T14:27:56.595Z,92.10
2018-07-01T14:30:25.628Z,91.40
2018-07-01T14:35:23.233Z,91.60
2018-07-01T14:37:52.231Z,91.60
2018-07-01T14:40:21.300Z,91.60
2018-07-01T14:47:47.272Z,91.50
2018-07-01T14:50:16.213Z,91.40
2018-07-01T14:52:45.336Z,91.10
2018-07-01T14:57:42.621Z,91.20
2018-07-01T15:00:11.580Z,90.90
2018-07-01T15:02:40.527Z,91.10
2018-07-01T15:05:09.697Z,90.90
2018-07-01T15:07:38.851Z,90.90
2018-07-01T15:10:07.913Z,91.00
2018-07-01T15:12:36.732Z,90.90
2018-07-01T15:15:05.696Z,90.60
2018-07-01T15:17:34.851Z,90.80
2018-07-01T15:20:03.926Z,91.20
2018-07-01T15:22:33.110Z,90.90
2018-07-01T15:25:02.172Z,91.30
2018-07-01T15:27:31.100Z,90.90
2018-07-01T15:30:00.057Z,91.00
2018-07-01T15:32:29.166Z,91.40
2018-07-01T15:34:58.034Z,91.50
2018-07-01T15:37:27.131Z,91.60
2018-07-01T15:39:56.161Z,91.40
2018-07-01T15:42:25.015Z,91.30
2018-07-01T15:44:53.923Z,91.50
2018-07-01T15:47:22.930Z,91.70
2018-07-01T15:49:52.087Z,91.50
2018-07-01T15:52:21.071Z,91.20
2018-07-01T15:54:49.914Z,91.00
2018-07-01T15:57:18.870Z,91.00
2018-07-01T15:59:48.035Z,90.80
2018-07-01T16:04:45.827Z,90.50
2018-07-01T16:07:14.853Z,90.40
2018-07-01T16:09:43.675Z,90.40
2018-07-01T16:12:12.637Z,90.50
2018-07-01T16:14:41.620Z,90.20
2018-07-01T16:17:10.681Z,90.40
2018-07-01T16:22:08.346Z,81.50
2018-07-01T16:27:15.151Z,81.00
2018-07-01T16:29:44.745Z,80.20
2018-07-01T16:34:42.519Z,80.00
2018-07-01T16:37:11.247Z,79.50
2018-07-01T16:39:40.259Z,79.70
2018-07-01T16:42:09.236Z,79.70
2018-07-01T16:44:38.159Z,79.90
2018-07-01T16:47:13.500Z,79.60
2018-07-01T16:49:42.505Z,78.90
2018-07-01T16:52:11.260Z,79.10
2018-07-01T16:54:40.177Z,79.10
2018-07-01T16:57:09.112Z,79.10
2018-07-01T16:59:37.903Z,79.20
2018-07-01T17:02:06.875Z,79.10
2018-07-01T17:07:04.525Z,80.10
2018-07-01T17:09:33.527Z,79.40
2018-07-01T17:12:02.520Z,78.80
2018-07-01T17:14:31.443Z,79.50
2018-07-01T17:17:00.252Z,79.30
2018-07-01T17:19:29.346Z,79.70
2018-07-01T17:21:58.435Z,80.20
2018-07-01T17:24:27.243Z,80.20
2018-07-01T17:26:56.201Z,80.30
2018-07-01T17:29:25.027Z,80.40
2018-07-01T17:31:59.007Z,80.30
2018-07-01T17:34:28.027Z,80.20
2018-07-01T17:36:57.053Z,80.80
2018-07-01T17:39:26.131Z,80.10
2018-07-01T17:41:55.013Z,79.90
2018-07-01T17:44:23.844Z,80.00
2018-07-01T17:46:52.724Z,79.90
2018-07-01T17:49:21.398Z,79.90
2018-07-01T17:51:50.315Z,79.80
2018-07-01T17:56:47.821Z,80.10
2018-07-01T17:59:16.873Z,80.80
2018-07-01T18:04:14.399Z,81.40
2018-07-01T18:06:43.309Z,80.80
2018-07-01T18:09:12.301Z,80.70
2018-07-01T18:11:41.233Z,80.90
2018-07-01T18:16:38.499Z,81.60
2018-07-01T18:21:36.574Z,82.00
2018-07-01T18:24:35.141Z,82.50
2018-07-01T18:26:34.584Z,82.90
2018-07-01T18:31:32.018Z,83.80
2018-07-01T18:34:01.021Z,83.80
2018-07-01T18:36:29.978Z,84.20
2018-07-01T18:38:58.914Z,84.60
2018-07-01T18:43:56.913Z,86.00
2018-07-01T18:48:54.306Z,86.20
2018-07-01T18:51:23.292Z,86.60
2018-07-01T18:53:52.163Z,87.00
2018-07-01T18:56:21.142Z,86.80
2018-07-01T18:58:50.067Z,86.90
2018-07-01T19:01:19.197Z,87.90
2018-07-01T19:03:49.034Z,86.90
2018-07-01T19:06:17.857Z,87.10
2018-07-01T19:08:47.217Z,86.50
2018-07-01T19:13:44.669Z,87.70
2018-07-01T19:16:13.840Z,86.90
2018-07-01T19:18:42.656Z,86.70
2018-07-01T19:21:11.798Z,86.80
2018-07-01T19:26:09.505Z,86.30
2018-07-01T19:28:38.677Z,86.70
2018-07-01T19:33:36.461Z,86.60
2018-07-01T19:36:05.597Z,85.80
2018-07-01T19:38:34.756Z,85.70
2018-07-01T19:41:03.657Z,85.40
2018-07-01T19:43:32.583Z,85.80
2018-07-01T19:46:01.611Z,86.20
2018-07-01T19:50:59.128Z,86.20
2018-07-01T19:53:28.238Z,85.40
2018-07-01T19:55:57.143Z,85.80
2018-07-01T19:58:26.249Z,86.10
2018-07-01T20:00:55.064Z,85.60
2018-07-01T20:05:52.492Z,85.60
2018-07-01T20:08:21.346Z,86.10
2018-07-01T20:10:50.155Z,86.50
2018-07-01T20:13:18.867Z,86.70
2018-07-01T20:15:47.582Z,87.20
2018-07-01T20:18:16.400Z,87.50
2018-07-01T20:20:45.173Z,88.10
2018-07-01T20:23:14.034Z,88.20
2018-07-01T20:25:42.898Z,89.00
2018-07-01T20:28:11.721Z,90.00
2018-07-01T20:30:40.561Z,90.20
2018-07-01T20:33:09.471Z,90.40
2018-07-01T20:35:38.563Z,90.70
2018-07-01T20:38:07.571Z,90.80
2018-07-01T20:40:36.499Z,90.90
2018-07-01T20:43:05.420Z,91.10
2018-07-01T20:45:34.325Z,91.20
2018-07-01T20:48:03.275Z,91.30
2018-07-01T20:50:32.821Z,91.20
2018-07-01T20:53:01.675Z,91.20
2018-07-01T20:55:30.353Z,91.40
2018-07-01T20:57:59.271Z,91.60
2018-07-01T21:00:28.192Z,91.70
2018-07-01T21:03:03.622Z,91.70
2018-07-01T21:05:32.476Z,92.00
2018-07-01T21:08:01.228Z,91.90
2018-07-01T21:12:58.592Z,91.70
2018-07-01T21:15:27.239Z,92.20
2018-07-01T21:17:55.923Z,92.30
2018-07-01T21:20:24.730Z,92.50
2018-07-01T21:22:53.531Z,92.40
2018-07-01T21:25:22.286Z,92.50
2018-07-01T21:27:51.193Z,92.70
2018-07-01T21:30:20.128Z,92.70
2018-07-01T21:32:48.987Z,92.70
2018-07-01T21:35:17.662Z,92.80
2018-07-01T21:37:46.467Z,93.30
2018-07-01T21:40:15.444Z,93.00
2018-07-01T21:45:13.017Z,92.90
2018-07-01T21:50:10.339Z,93.30
2018-07-01T21:52:39.171Z,93.50
2018-07-01T21:55:08.068Z,93.50
2018-07-01T21:57:36.837Z,93.50
2018-07-01T22:00:08.215Z,93.60
2018-07-01T22:02:37.190Z,93.60
2018-07-01T22:05:06.306Z,93.60
2018-07-01T22:07:35.081Z,93.50
2018-07-01T22:10:04.014Z,93.60
2018-07-01T22:12:43.606Z,93.70
2018-07-01T22:15:26.013Z,94.10
2018-07-01T22:17:55.632Z,94.10
2018-07-01T22:20:24.664Z,94.10
2018-07-01T22:22:53.503Z,94.00
2018-07-01T22:25:22.334Z,94.10
2018-07-01T22:27:51.245Z,94.20
2018-07-01T22:30:19.911Z,94.30
2018-07-01T22:32:48.757Z,94.30
2018-07-01T22:35:17.348Z,94.50
2018-07-01T22:37:46.235Z,94.40
2018-07-01T22:40:15.038Z,94.30
2018-07-01T22:42:44.114Z,94.40
2018-07-01T22:45:13.046Z,94.50
2018-07-01T22:47:41.904Z,94.80
2018-07-01T22:50:10.810Z,94.80
2018-07-01T22:52:39.591Z,94.90
2018-07-01T22:55:08.419Z,94.90
2018-07-01T22:57:37.162Z,95.10
2018-07-01T23:00:06.367Z,95.10
2018-07-01T23:02:59.297Z,95.10
2018-07-01T23:05:28.102Z,95.30
2018-07-01T23:07:56.762Z,95.30
2018-07-01T23:10:26.503Z,95.20
2018-07-01T23:12:56.040Z,95.40
2018-07-01T23:15:24.994Z,95.40
2018-07-01T23:17:54.063Z,95.40
2018-07-01T23:22:51.300Z,95.50
2018-07-01T23:25:20.048Z,95.90
2018-07-01T23:27:48.764Z,95.80
2018-07-01T23:30:17.699Z,95.80
2018-07-01T23:32:46.509Z,95.70
2018-07-01T23:35:15.411Z,95.60
2018-07-01T23:37:44.129Z,95.80
2018-07-01T23:40:13.181Z,95.70
2018-07-01T23:42:42.567Z,96.10
2018-07-01T23:47:41.366Z,96.00
2018-07-01T23:52:38.738Z,95.80
2018-07-01T23:55:08.269Z,95.90
2018-07-01T23:57:37.065Z,95.90
